Time;durP1;ratioP1;P1;durP2;ratioP2;P2;SDS_P1;SDS_P2;PMS_P1;PMS_P2;Temp;Humidity;BMP_temperature;BMP_pressure;BME280_temperature;BME280_humidity;BME280_pressure;Samples;Min_cycle;Max_cycle;Signal;HPM_P1;HPM_P2
2022/01/24 00:00:01;;;;;;;56.20;30.40;;;;;;;-4.53;62.66;101979.71;107203;1273;97037;-69
2022/01/24 00:02:31;;;;;;;59.10;30.50;;;;;;;-4.49;62.25;101980.83;105991;1274;139489;-70
2022/01/24 00:04:59;;;;;;;63.50;31.50;;;;;;;-4.45;62.42;101982.22;106123;1273;109112;-71
2022/01/24 00:07:28;;;;;;;64.90;31.20;;;;;;;-4.41;62.49;101982.11;106068;1273;109125;-69
2022/01/24 00:10:00;;;;;;;59.50;30.60;;;;;;;-4.37;62.53;101985.40;106000;1274;138677;-69
2022/01/24 00:12:35;;;;;;;61.60;30.80;;;;;;;-4.36;62.46;101987.02;106130;1273;97863;-69
2022/01/24 00:15:15;;;;;;;62.70;32.40;;;;;;;-4.37;62.41;101991.20;107503;1274;139886;-69
2022/01/24 00:17:49;;;;;;;65.60;31.90;;;;;;;-4.39;62.49;101991.38;107694;1273;108727;-69
2022/01/24 00:28:38;;;;;;;;;;;;;;;-4.41;63.01;101998.10;105998;1273;138863;-69
2022/01/24 00:31:08;;;;;;;68.00;32.20;;;;;;;-4.42;62.92;101996.66;106123;1273;107418;-70
2022/01/24 00:33:37;;;;;;;61.40;30.50;;;;;;;-4.41;62.73;102003.70;106024;1274;138319;-68
2022/01/24 00:36:06;;;;;;;60.30;29.80;;;;;;;-4.38;62.87;102007.08;107534;1273;96474;-70
2022/01/24 00:38:35;;;;;;;55.50;28.40;;;;;;;-4.34;62.96;102007.30;106984;1273;139108;-71
2022/01/24 00:41:04;;;;;;;56.90;30.00;;;;;;;-4.28;63.09;102009.70;106089;1273;112691;-70
2022/01/24 00:43:49;;;;;;;55.20;28.50;;;;;;;-4.18;62.95;102004.27;106056;1273;108982;-69
2022/01/24 00:46:30;;;;;;;57.40;29.20;;;;;;;-4.09;62.94;102003.97;107455;1273;138379;-70
2022/01/24 00:49:18;;;;;;;57.00;29.20;;;;;;;-4.00;62.68;102001.20;106112;1273;97837;-70
2022/01/24 00:54:43;;;;;;;58.70;29.00;;;;;;;-3.91;62.24;101998.79;106038;1273;112906;-70
2022/01/24 00:57:12;;;;;;;55.90;28.20;;;;;;;-3.91;62.42;101997.31;106008;1273;138793;-69
2022/01/24 00:59:42;;;;;;;60.60;29.10;;;;;;;-3.90;62.14;101991.19;107605;1273;108305;-70
2022/01/24 01:02:10;;;;;;;56.90;29.60;;;;;;;-3.90;62.52;101991.40;107671;1273;96148;-70
2022/01/24 01:04:52;;;;;;;60.40;30.40;;;;;;;-3.90;62.18;101991.05;107465;1273;138077;-70
2022/01/24 01:07:30;;;;;;;61.60;30.40;;;;;;;-3.91;62.33;101995.94;106281;1273;112428;-70
2022/01/24 01:18:18;;;;;;;;;;;;;;;-3.97;62.53;101986.09;106100;1273;97833;-70
2022/01/24 01:21:08;;;;;;;64.80;32.50;;;;;;;-4.00;62.88;101989.46;106099;1273;125364;-70
2022/01/24 01:23:41;;;;;;;58.10;30.60;;;;;;;-4.06;62.72;101983.92;106138;1273;108546;-69
2022/01/24 01:26:18;;;;;;;66.90;31.80;;;;;;;-4.09;62.42;101980.83;107396;1273;108928;-69
2022/01/24 01:28:50;;;;;;;63.00;31.10;;;;;;;-4.12;62.76;101979.51;106458;1273;138845;-69
2022/01/24 01:31:29;;;;;;;55.60;30.10;;;;;;;-4.12;63.05;101983.93;106023;1273;97855;-67
2022/01/24 01:34:06;;;;;;;63.80;30.20;;;;;;;-4.11;63.26;101989.25;107512;1273;137812;-68
2022/01/24 01:37:02;;;;;;;63.30;31.00;;;;;;;-4.10;63.02;101981.83;107673;1273;107666;-68
2022/01/24 01:39:48;;;;;;;62.40;29.70;;;;;;;-4.09;63.08;101979.83;107423;1273;138799;-68
2022/01/24 01:53:46;;;;;;;;;;;;;;;-4.11;63.31;101979.22;107055;1279;109227;-67
2022/01/24 01:56:15;;;;;;;55.90;27.10;;;;;;;-4.11;63.24;101982.12;105838;1279;97836;-69
2022/01/24 01:58:43;;;;;;;60.20;30.00;;;;;;;-4.09;63.10;101982.70;105706;1279;138097;-69
2022/01/24 02:01:12;;;;;;;51.20;26.50;;;;;;;-4.08;63.30;101980.91;105727;1279;112680;-69
2022/01/24 02:03:41;;;;;;;52.20;26.10;;;;;;;-4.07;63.29;101988.45;105666;1279;141355;-68
2022/01/24 02:06:12;;;;;;;56.00;26.40;;;;;;;-4.05;63.00;101988.52;107098;1279;107896;-69
2022/01/24 02:08:42;;;;;;;53.10;25.80;;;;;;;-4.02;63.11;101990.04;107058;1279;140811;-69
2022/01/24 02:11:14;;;;;;;53.20;26.40;;;;;;;-3.97;63.13;101993.89;106025;1279;97870;-68
2022/01/24 02:13:46;;;;;;;52.80;27.60;;;;;;;-3.92;62.75;101990.96;105742;1279;111974;-68
2022/01/24 02:16:23;;;;;;;59.80;28.70;;;;;;;-3.86;62.95;101991.92;106885;1279;139459;-70
2022/01/24 02:19:05;;;;;;;57.40;29.30;;;;;;;-3.83;62.78;101985.99;107108;1279;109268;-70
2022/01/24 02:21:43;;;;;;;64.10;30.20;;;;;;;-3.81;62.87;101983.88;107042;1279;138703;-70
2022/01/24 02:24:15;;;;;;;58.90;28.70;;;;;;;-3.82;62.87;101989.79;107234;1279;96242;-70
2022/01/24 02:26:43;;;;;;;53.30;26.50;;;;;;;-3.83;62.72;101997.04;105781;1279;138405;-69
2022/01/24 02:29:20;;;;;;;63.00;31.60;;;;;;;-3.86;62.73;101998.25;105993;1273;109062;-69
2022/01/24 02:31:51;;;;;;;64.60;32.80;;;;;;;-3.88;62.71;101992.02;106126;1273;108997;-69
2022/01/24 02:34:29;;;;;;;63.60;32.30;;;;;;;-3.91;63.02;101991.34;106256;1273;138244;-70
2022/01/24 02:37:01;;;;;;;60.00;30.80;;;;;;;-3.93;63.05;101990.05;106161;1273;98242;-69
2022/01/24 02:39:46;;;;;;;64.50;32.70;;;;;;;-3.94;62.90;101990.98;106006;1273;139040;-69
2022/01/24 02:53:26;;;;;;;51.10;27.80;;;;;;;-3.92;63.32;101988.55;106092;1273;112463;-69
2022/01/24 02:55:55;;;;;;;57.10;28.60;;;;;;;-3.87;63.67;101993.76;106217;1273;109034;-69
2022/01/24 02:58:23;;;;;;;55.60;28.70;;;;;;;-3.84;63.07;101989.36;107514;1273;138235;-70
2022/01/24 03:00:53;;;;;;;56.40;28.50;;;;;;;-3.79;63.36;101989.46;107598;1273;95780;-70
2022/01/24 03:03:23;;;;;;;56.50;28.90;;;;;;;-3.73;63.23;101987.91;107540;1273;137780;-70
2022/01/24 03:05:52;;;;;;;54.10;27.50;;;;;;;-3.71;62.95;101985.11;105956;1273;113078;-69
2022/01/24 03:08:22;;;;;;;55.20;28.00;;;;;;;-3.70;63.17;101987.36;106325;1273;108464;-69
2022/01/24 03:10:52;;;;;;;52.50;27.20;;;;;;;-3.71;62.96;101990.89;105995;1273;138052;-69
2022/01/24 03:13:32;;;;;;;52.90;27.50;;;;;;;-3.74;62.73;101986.33;106010;1273;97929;-69
2022/01/24 03:16:05;;;;;;;49.30;26.30;;;;;;;-3.73;63.08;101985.50;105932;1273;138196;-69
2022/01/24 03:18:33;;;;;;;51.40;25.90;;;;;;;-3.76;63.00;101983.69;107611;1273;112650;-69
2022/01/24 03:21:03;;;;;;;50.80;27.60;;;;;;;-3.79;62.98;101985.52;107343;1273;139070;-70
2022/01/24 03:23:32;;;;;;;50.40;25.90;;;;;;;-3.80;63.23;101986.49;106232;1273;108979;-69
2022/01/24 03:26:00;;;;;;;51.10;26.50;;;;;;;-3.81;63.20;101989.35;106105;1273;97838;-69
2022/01/24 03:28:29;;;;;;;49.70;26.70;;;;;;;-3.82;63.32;101993.34;105988;1273;138053;-69
2022/01/24 03:30:58;;;;;;;51.80;26.50;;;;;;;-3.83;63.12;101990.39;106028;1273;110677;-69
2022/01/24 03:33:26;;;;;;;51.30;25.40;;;;;;;-3.84;63.06;101988.48;105965;1273;138573;-70
2022/01/24 03:35:55;;;;;;;48.70;25.50;;;;;;;-3.84;63.43;101989.50;106066;1273;106782;-68
2022/01/24 03:38:23;;;;;;;46.00;24.40;;;;;;;-3.82;63.25;101991.81;106090;1273;97835;-70
2022/01/24 03:40:52;;;;;;;47.50;24.50;;;;;;;-3.78;63.52;101987.95;105877;1273;138813;-69
2022/01/24 03:43:21;;;;;;;51.00;26.10;;;;;;;-3.73;63.41;101980.60;106037;1273;112827;-69
2022/01/24 03:46:10;;;;;;;50.00;25.80;;;;;;;-3.65;63.28;101985.77;105960;1273;139946;-69
2022/01/24 03:48:42;;;;;;;53.40;26.80;;;;;;;-3.62;63.46;101981.98;106081;1273;109028;-69
2022/01/24 03:51:12;;;;;;;46.10;25.60;;;;;;;-3.60;63.32;101979.36;106006;1273;138489;-68
2022/01/24 03:53:42;;;;;;;47.70;25.10;;;;;;;-3.60;63.21;101974.59;106074;1273;97847;-69
2022/01/24 03:56:12;;;;;;;53.30;25.60;;;;;;;-3.63;63.20;101973.96;106074;1273;112640;-71
2022/01/24 03:58:41;;;;;;;44.90;22.70;;;;;;;-3.60;63.20;101980.73;105935;1274;138391;-68
2022/01/24 04:01:10;;;;;;;46.60;24.50;;;;;;;-3.59;63.22;101984.02;105981;1274;107873;-68
2022/01/24 04:03:40;;;;;;;50.70;24.80;;;;;;;-3.60;63.10;101977.84;105903;1273;138310;-69
2022/01/24 04:06:08;;;;;;;53.90;27.50;;;;;;;-3.59;63.31;101976.03;106010;1271;97843;-70
2022/01/24 04:08:37;;;;;;;58.60;28.00;;;;;;;-3.58;63.20;101979.46;105984;1273;139808;-69
2022/01/24 04:11:10;;;;;;;50.00;27.20;;;;;;;-3.57;63.52;101980.93;106205;1273;108766;-69
2022/01/24 04:13:43;;;;;;;51.70;27.00;;;;;;;-3.58;63.21;101982.23;105925;1273;107771;-69
2022/01/24 04:19:04;;;;;;;55.30;28.90;;;;;;;-3.61;63.40;101984.77;106169;1273;97838;-68
2022/01/24 04:21:36;;;;;;;49.70;25.40;;;;;;;-3.61;63.51;101983.75;105907;1273;138498;-70
2022/01/24 04:24:09;;;;;;;53.00;26.20;;;;;;;-3.60;63.38;101986.84;106103;1273;108917;-71
2022/01/24 04:26:38;;;;;;;53.60;25.90;;;;;;;-3.59;63.58;101983.82;107190;1273;139645;-69
2022/01/24 04:29:08;;;;;;;49.30;24.80;;;;;;;-3.57;63.45;101983.98;106021;1273;97855;-70
2022/01/24 04:31:37;;;;;;;49.40;24.70;;;;;;;-3.52;63.46;101988.30;107672;1273;95891;-70
2022/01/24 04:34:06;;;;;;;50.70;25.10;;;;;;;-3.48;63.41;101985.63;106457;1273;138210;-71
2022/01/24 04:36:34;;;;;;;51.20;25.40;;;;;;;-3.45;63.40;101984.96;106143;1273;108988;-70
2022/01/24 04:39:04;;;;;;;47.60;25.10;;;;;;;-3.42;63.29;101983.56;105939;1273;139100;-70
2022/01/24 04:41:36;;;;;;;52.00;25.50;;;;;;;-3.40;63.18;101985.08;106052;1273;97854;-69
2022/01/24 04:44:14;;;;;;;41.60;22.10;;;;;;;-3.39;62.89;101989.38;106048;1273;97851;-70
2022/01/24 04:52:27;;;;;;;49.90;25.10;;;;;;;-3.41;63.03;101996.39;105864;1274;139113;-69
2022/01/24 04:54:56;;;;;;;51.00;27.00;;;;;;;-3.40;62.94;101988.80;106241;1273;171863;-69
2022/01/24 04:57:27;;;;;;;53.30;27.90;;;;;;;-3.39;63.39;101983.56;107518;1273;138421;-70
2022/01/24 04:59:57;;;;;;;55.30;28.00;;;;;;;-3.41;63.20;101989.75;106292;1273;112681;-70
2022/01/24 05:02:27;;;;;;;56.70;28.80;;;;;;;-3.44;63.40;101995.53;106190;1263;108907;-69
2022/01/24 05:04:56;;;;;;;56.90;27.90;;;;;;;-3.48;63.76;101999.42;106007;1273;138542;-69
2022/01/24 05:07:25;;;;;;;54.50;27.50;;;;;;;-3.51;63.57;102002.15;106074;1272;97861;-68
2022/01/24 05:10:00;;;;;;;51.60;26.30;;;;;;;-3.52;63.48;102002.46;106086;1273;139115;-71
2022/01/24 05:21:11;;;;;;;54.80;27.30;;;;;;;-3.50;63.55;102003.52;106131;1273;111622;-70
2022/01/24 05:23:43;;;;;;;58.80;29.60;;;;;;;-3.38;63.87;102009.34;106085;1271;97821;-71
2022/01/24 05:26:12;;;;;;;58.40;29.80;;;;;;;-3.38;63.71;102007.94;106109;1273;112501;-71
2022/01/24 05:28:40;;;;;;;63.10;31.50;;;;;;;-3.42;63.87;102008.71;106029;1272;139200;-71
2022/01/24 05:31:09;;;;;;;67.00;30.80;;;;;;;-3.48;64.07;102005.88;106021;1273;109355;-70
2022/01/24 05:33:37;;;;;;;64.90;32.10;;;;;;;-3.55;63.92;102010.42;106054;1273;138521;-70
2022/01/24 05:36:06;;;;;;;64.20;31.40;;;;;;;-3.63;64.42;102007.29;106113;1271;97823;-71
2022/01/24 05:38:35;;;;;;;60.40;31.80;;;;;;;-3.71;64.28;102007.05;105970;1273;140256;-70
2022/01/24 05:41:03;;;;;;;62.90;31.00;;;;;;;-3.78;64.53;102013.13;106128;1273;109019;-70
2022/01/24 05:43:35;;;;;;;59.70;30.10;;;;;;;-3.81;64.38;102016.67;105987;1273;109477;-71
2022/01/24 05:46:04;;;;;;;63.50;30.90;;;;;;;-3.84;64.61;102017.02;105973;1273;138257;-70
2022/01/24 05:48:32;;;;;;;59.20;30.30;;;;;;;-3.87;65.13;102023.84;106206;1273;97762;-70
2022/01/24 05:51:01;;;;;;;59.70;29.70;;;;;;;-3.91;65.31;102023.96;106084;1273;139459;-70
2022/01/24 05:53:30;;;;;;;58.10;30.70;;;;;;;-3.91;65.24;102027.36;106204;1271;109012;-71
2022/01/24 05:55:59;;;;;;;63.20;31.20;;;;;;;-3.92;65.13;102023.73;106196;1273;108845;-70
2022/01/24 05:58:28;;;;;;;65.00;31.90;;;;;;;-3.92;65.45;102026.80;106001;1272;139460;-71
2022/01/24 06:00:56;;;;;;;65.90;33.00;;;;;;;-3.93;65.47;102031.34;106119;1271;97715;-71
2022/01/24 06:03:27;;;;;;;64.80;32.20;;;;;;;-3.94;65.26;102031.95;105928;1273;138130;-72
2022/01/24 06:05:56;;;;;;;62.50;31.90;;;;;;;-3.96;65.25;102038.12;107616;1273;108076;-75
2022/01/24 06:08:24;;;;;;;65.10;31.90;;;;;;;-3.94;66.36;102032.80;105997;1273;107867;-72
2022/01/24 06:10:58;;;;;;;65.60;30.10;;;;;;;-3.92;65.65;102030.02;106028;1273;140632;-70
2022/01/24 06:13:28;;;;;;;63.70;28.80;;;;;;;-3.95;65.53;102029.20;106198;1273;97837;-71
2022/01/24 06:15:56;;;;;;;61.80;30.00;;;;;;;-3.95;65.49;102030.05;106029;1271;138535;-71
2022/01/24 06:18:25;;;;;;;58.30;30.00;;;;;;;-3.95;65.62;102027.64;106149;1273;108950;-71
2022/01/24 06:20:54;;;;;;;59.50;30.10;;;;;;;-3.93;65.47;102023.32;106156;1273;138515;-69
2022/01/24 06:23:25;;;;;;;61.60;31.00;;;;;;;-3.92;65.34;102023.90;106172;1272;97892;-69
2022/01/24 06:25:53;;;;;;;67.20;31.00;;;;;;;-3.92;65.69;102022.21;106093;1273;97967;-69
2022/01/24 06:28:22;;;;;;;60.60;30.10;;;;;;;-3.94;65.79;102019.37;106060;1273;138235;-71
2022/01/24 06:30:50;;;;;;;61.90;30.40;;;;;;;-3.98;65.93;102020.02;106072;1273;108952;-71
2022/01/24 06:33:19;;;;;;;64.70;33.40;;;;;;;-4.03;65.78;102019.73;105989;1273;139269;-72
2022/01/24 06:35:47;;;;;;;57.10;29.10;;;;;;;-4.06;66.24;102025.17;106156;1273;97826;-72
2022/01/24 06:38:16;;;;;;;55.30;28.20;;;;;;;-4.08;66.25;102021.33;106056;1273;97839;-72
2022/01/24 06:40:45;;;;;;;52.30;27.50;;;;;;;-4.08;66.25;102018.10;105929;1273;138907;-71
2022/01/24 06:43:13;;;;;;;53.70;27.60;;;;;;;-4.06;66.37;102009.38;106182;1273;108919;-71
2022/01/24 06:45:42;;;;;;;56.20;27.40;;;;;;;-4.05;66.26;102014.89;106003;1271;139628;-70
2022/01/24 06:48:11;;;;;;;58.30;29.00;;;;;;;-4.01;66.00;102013.90;106198;1273;97812;-71
2022/01/24 06:50:40;;;;;;;57.80;28.70;;;;;;;-3.98;66.14;102018.48;106027;1273;138053;-69
2022/01/24 06:53:08;;;;;;;57.30;29.50;;;;;;;-3.97;66.30;102016.84;106228;1273;112683;-69
2022/01/24 06:55:37;;;;;;;64.70;29.40;;;;;;;-3.95;66.32;102016.41;106115;1273;109030;-69
2022/01/24 06:58:05;;;;;;;62.70;30.40;;;;;;;-3.96;66.30;102020.44;106086;1273;139373;-71
2022/01/24 07:00:34;;;;;;;54.10;29.80;;;;;;;-3.96;66.35;102020.98;106109;1273;97825;-71
2022/01/24 07:03:03;;;;;;;56.80;29.30;;;;;;;-3.96;66.45;102024.21;106093;1273;138382;-70
2022/01/24 07:05:32;;;;;;;54.90;28.30;;;;;;;-3.94;66.55;102027.50;106059;1273;111923;-71
2022/01/24 07:08:01;;;;;;;51.00;25.70;;;;;;;-3.92;66.30;102031.88;106116;1273;109132;-71
2022/01/24 07:10:30;;;;;;;55.10;28.00;;;;;;;-3.88;66.66;102033.46;105926;1273;138746;-71
2022/01/24 07:13:00;;;;;;;54.10;28.40;;;;;;;-3.84;66.55;102038.94;106210;1273;97832;-70
2022/01/24 07:15:34;;;;;;;57.20;28.50;;;;;;;-3.83;66.30;102039.18;106045;1273;137811;-70
2022/01/24 07:18:57;;;;;;;58.50;27.10;;;;;;;-3.83;66.28;102039.20;106098;1273;112709;-71
2022/01/24 07:21:07;;;;;;;59.40;27.70;;;;;;;-3.80;66.56;102037.61;106057;1273;138311;-70
2022/01/24 07:23:36;;;;;;;58.90;28.80;;;;;;;-3.78;66.53;102031.64;106071;1273;107874;-71
2022/01/24 07:26:04;;;;;;;54.60;26.80;;;;;;;-3.76;66.28;102031.74;106054;1273;97821;-70
2022/01/24 07:28:33;;;;;;;63.30;29.70;;;;;;;-3.76;66.45;102039.23;106058;1273;138121;-71
2022/01/24 07:31:02;;;;;;;57.60;29.30;;;;;;;-3.75;66.40;102041.35;106146;1273;112357;-70
2022/01/24 07:33:30;;;;;;;57.40;29.00;;;;;;;-3.72;66.57;102040.33;105995;1273;139757;-70
2022/01/24 07:35:59;;;;;;;59.60;28.50;;;;;;;-3.69;66.48;102041.47;106245;1273;108971;-70
2022/01/24 07:38:28;;;;;;;57.00;27.50;;;;;;;-3.64;66.54;102047.51;106184;1273;97836;-70
2022/01/24 07:40:59;;;;;;;57.00;28.30;;;;;;;-3.57;66.60;102047.73;106139;1273;138573;-70
2022/01/24 07:43:27;;;;;;;59.00;28.50;;;;;;;-3.51;66.69;102049.25;106222;1273;112590;-70
2022/01/24 07:45:56;;;;;;;59.00;27.90;;;;;;;-3.46;66.60;102050.16;106007;1273;139528;-70
2022/01/24 07:48:25;;;;;;;61.70;28.70;;;;;;;-3.42;66.31;102052.09;105974;1274;108809;-72
2022/01/24 07:50:54;;;;;;;61.30;29.70;;;;;;;-3.40;66.16;102050.84;106022;1271;139375;-72
2022/01/24 07:53:24;;;;;;;58.40;30.00;;;;;;;-3.41;66.10;102051.30;106154;1272;97697;-71
2022/01/24 07:56:13;;;;;;;57.20;30.20;;;;;;;-3.45;66.04;102051.27;106096;1274;112658;-70
2022/01/24 07:58:43;;;;;;;59.00;27.90;;;;;;;-3.45;66.19;102054.35;105958;1274;139240;-71
2022/01/24 08:01:12;;;;;;;60.00;29.10;;;;;;;-3.44;66.13;102052.48;106080;1273;109715;-71
2022/01/24 08:03:41;;;;;;;59.80;30.10;;;;;;;-3.47;66.23;102051.67;106013;1271;138304;-75
2022/01/24 08:06:10;;;;;;;59.50;29.50;;;;;;;-3.48;66.26;102049.39;106047;1274;97813;-71
2022/01/24 08:08:39;;;;;;;54.50;26.90;;;;;;;-3.49;66.61;102047.13;105924;1274;140075;-72
2022/01/24 08:11:08;;;;;;;55.40;27.80;;;;;;;-3.48;66.62;102043.63;106035;1273;108931;-71
2022/01/24 08:13:37;;;;;;;49.90;27.90;;;;;;;-3.44;66.80;102041.13;105991;1274;109275;-70
2022/01/24 08:16:06;;;;;;;61.00;29.80;;;;;;;-3.38;66.63;102035.86;106094;1273;138116;-71
2022/01/24 08:18:34;;;;;;;59.00;28.80;;;;;;;-3.31;66.66;102040.08;106142;1274;97841;-71
2022/01/24 08:21:03;;;;;;;65.30;30.50;;;;;;;-3.28;66.60;102040.08;106067;1274;139436;-70
2022/01/24 08:23:32;;;;;;;61.40;30.60;;;;;;;-3.24;66.34;102036.88;106414;1273;109014;-70
2022/01/24 08:26:01;;;;;;;60.40;30.20;;;;;;;-3.20;66.33;102036.30;106329;1273;109414;-71
2022/01/24 08:28:29;;;;;;;60.80;29.70;;;;;;;-3.16;66.37;102030.52;105948;1274;138561;-71
2022/01/24 08:30:58;;;;;;;64.20;30.20;;;;;;;-3.15;66.29;102030.23;106087;1272;97831;-69
2022/01/24 08:33:26;;;;;;;58.30;31.20;;;;;;;-3.15;66.13;102031.96;105987;1274;138155;-69
2022/01/24 08:35:55;;;;;;;58.90;29.50;;;;;;;-3.13;66.16;102037.16;106167;1273;109126;-69
2022/01/24 08:38:24;;;;;;;62.30;31.10;;;;;;;-3.12;65.94;102037.89;106059;1274;108887;-71
2022/01/24 08:40:58;;;;;;;54.60;28.30;;;;;;;-3.10;65.83;102038.15;106164;1274;142839;-69
2022/01/24 08:43:38;;;;;;;53.10;27.40;;;;;;;-3.06;66.16;102036.82;106140;1274;97844;-68
2022/01/24 08:46:07;;;;;;;57.30;27.10;;;;;;;-3.01;66.03;102036.55;107297;1274;139083;-70
2022/01/24 08:48:37;;;;;;;59.20;28.50;;;;;;;-2.97;65.74;102035.77;107516;1271;108909;-70
2022/01/24 08:51:05;;;;;;;60.00;29.90;;;;;;;-2.90;65.80;102032.85;106025;1273;139348;-69
2022/01/24 08:53:35;;;;;;;64.70;30.30;;;;;;;-2.84;65.99;102033.88;106034;1274;99649;-70
2022/01/24 08:56:06;;;;;;;63.50;31.50;;;;;;;-2.79;65.79;102030.02;106105;1274;97841;-70
2022/01/24 08:58:36;;;;;;;65.60;32.10;;;;;;;-2.73;65.33;102024.20;105975;1274;138415;-70
2022/01/24 09:01:05;;;;;;;57.60;29.20;;;;;;;-2.68;65.63;102023.06;106098;1274;108999;-70
2022/01/24 09:03:39;;;;;;;65.70;29.80;;;;;;;-2.64;65.60;102026.34;105872;1271;138270;-71
2022/01/24 09:06:09;;;;;;;58.70;30.20;;;;;;;-2.60;65.19;102022.97;106031;1273;97844;-71
2022/01/24 09:08:37;;;;;;;59.00;29.90;;;;;;;-2.57;65.30;102014.61;107336;1271;138252;-71
2022/01/24 09:11:06;;;;;;;56.20;30.00;;;;;;;-2.55;65.32;102018.11;107684;1273;113155;-71
2022/01/24 09:13:35;;;;;;;66.80;31.30;;;;;;;-2.54;65.28;102013.73;106196;1271;109069;-71
2022/01/24 09:16:04;;;;;;;60.90;29.90;;;;;;;-2.52;64.90;102016.75;105913;1272;139881;-71
2022/01/24 09:18:33;;;;;;;50.30;26.40;;;;;;;-2.49;65.03;102016.04;106169;1271;97826;-71
2022/01/24 09:21:02;;;;;;;53.50;27.30;;;;;;;-2.48;65.02;102015.27;107552;1273;138760;-71
2022/01/24 09:23:30;;;;;;;56.20;26.80;;;;;;;-2.42;65.11;102018.20;106887;1273;111843;-71
2022/01/24 09:25:59;;;;;;;56.60;27.00;;;;;;;-2.37;64.90;102019.15;106067;1274;108569;-71
2022/01/24 09:28:28;;;;;;;58.10;26.70;;;;;;;-2.34;64.83;102018.27;105692;1272;139665;-70
2022/01/24 09:30:57;;;;;;;57.80;28.20;;;;;;;-2.31;64.93;102015.23;106876;1273;96188;-71
2022/01/24 09:33:26;;;;;;;65.20;29.40;;;;;;;-2.27;64.60;102010.94;107517;1273;138288;-71
2022/01/24 09:35:59;;;;;;;58.00;28.60;;;;;;;-2.24;64.53;102011.94;107618;1274;112515;-71
2022/01/24 09:38:29;;;;;;;60.30;27.40;;;;;;;-2.21;64.78;102010.08;107678;1272;107244;-71
2022/01/24 09:40:59;;;;;;;70.80;29.30;;;;;;;-2.16;64.64;102007.92;106405;1273;138547;-72
2022/01/24 09:43:28;;;;;;;62.30;27.30;;;;;;;-2.09;64.62;102011.64;107652;1274;95870;-72
2022/01/24 09:45:58;;;;;;;54.00;26.80;;;;;;;-2.05;64.47;102009.79;107630;1273;138110;-71
2022/01/24 09:48:26;;;;;;;57.00;27.00;;;;;;;-2.01;64.54;102012.02;107582;1274;112638;-73
2022/01/24 09:50:55;;;;;;;56.30;28.10;;;;;;;-1.93;64.43;102009.02;107563;1273;139417;-71
2022/01/24 09:53:30;;;;;;;56.70;28.00;;;;;;;-1.84;63.92;102010.42;106790;1274;111057;-71
2022/01/24 09:56:03;;;;;;;64.10;29.40;;;;;;;-1.78;63.85;102006.81;106050;1274;97847;-71
2022/01/24 09:58:33;;;;;;;58.20;28.40;;;;;;;-1.70;64.08;102005.60;105988;1274;138487;-71
2022/01/24 10:01:02;;;;;;;65.70;28.80;;;;;;;-1.62;63.82;102006.33;106014;1273;111458;-71
2022/01/24 10:03:31;;;;;;;54.60;26.60;;;;;;;-1.51;63.85;102005.46;105857;1273;139668;-72
2022/01/24 10:06:12;;;;;;;60.80;27.10;;;;;;;-1.46;63.56;102002.75;106063;1273;109175;-71
2022/01/24 10:08:41;;;;;;;52.10;26.10;;;;;;;-1.44;63.23;101994.70;105903;1273;138466;-71
2022/01/24 10:11:16;;;;;;;48.10;25.50;;;;;;;-1.38;62.94;102000.41;106004;1272;97902;-71
2022/01/24 10:16:35;;;;;;;;;;;;;;;-1.44;62.80;101997.92;105932;1272;138169;-71
2022/01/24 10:19:09;;;;;;;52.20;25.40;;;;;;;-1.45;62.59;101991.89;106115;1272;108860;-72
2022/01/24 10:22:00;;;;;;;49.60;24.80;;;;;;;-1.45;62.68;101991.19;105985;1273;139534;-71
2022/01/24 10:24:40;;;;;;;50.10;23.50;;;;;;;-1.45;62.84;101989.34;107623;1272;96179;-72
2022/01/24 10:27:13;;;;;;;54.10;26.40;;;;;;;-1.43;62.74;101983.81;106841;1271;138245;-72
2022/01/24 10:29:47;;;;;;;50.20;25.00;;;;;;;-1.37;62.64;101979.12;106154;1273;108958;-72
2022/01/24 10:32:36;;;;;;;49.10;23.70;;;;;;;-1.31;62.46;101980.23;106135;1272;106835;-70
2022/01/24 10:35:31;;;;;;;49.40;24.90;;;;;;;-1.23;62.67;101974.48;105957;1273;138344;-72
2022/01/24 10:38:26;;;;;;;46.60;24.70;;;;;;;-1.12;62.60;101970.80;106042;1271;98526;-70
2022/01/24 10:41:09;;;;;;;52.20;23.80;;;;;;;-0.95;62.22;101969.16;107517;1271;138856;-71
2022/01/24 10:43:39;;;;;;;51.00;23.60;;;;;;;-0.85;62.23;101972.16;105997;1271;107400;-74
2022/01/24 10:46:09;;;;;;;46.50;22.50;;;;;;;-0.77;61.95;101961.91;105851;1273;138048;-71
2022/01/24 10:48:40;;;;;;;45.30;22.10;;;;;;;-0.69;61.40;101965.66;107549;1271;95981;-71
2022/01/24 10:51:20;;;;;;;47.40;23.40;;;;;;;-0.72;61.40;101960.73;106779;1273;138019;-71
2022/01/24 10:53:51;;;;;;;46.70;23.20;;;;;;;-0.76;61.02;101964.17;105943;1271;112354;-71
2022/01/24 10:56:34;;;;;;;51.00;23.40;;;;;;;-0.78;61.18;101962.52;106078;1271;109227;-71
2022/01/24 10:59:13;;;;;;;48.30;23.30;;;;;;;-0.79;61.02;101961.48;105981;1271;138000;-70
2022/01/24 11:01:44;;;;;;;47.70;22.70;;;;;;;-0.76;61.36;101956.65;105851;1273;98009;-70
2022/01/24 11:04:15;;;;;;;44.80;22.50;;;;;;;-0.74;61.22;101948.69;105804;1273;138512;-70
2022/01/24 11:06:47;;;;;;;45.40;21.90;;;;;;;-0.67;61.40;101949.69;105961;1272;111367;-71
2022/01/24 11:09:24;;;;;;;41.30;22.40;;;;;;;-0.62;61.02;101947.67;105856;1273;138616;-70
2022/01/24 11:11:54;;;;;;;45.40;22.40;;;;;;;-0.62;61.09;101946.63;105860;1273;108980;-70
2022/01/24 11:14:25;;;;;;;47.40;23.20;;;;;;;-0.59;61.01;101939.88;105957;1273;97890;-70
2022/01/24 11:16:56;;;;;;;49.10;23.20;;;;;;;-0.54;61.10;101934.30;105917;1273;137951;-70
2022/01/24 11:19:30;;;;;;;44.50;23.30;;;;;;;-0.46;61.18;101924.02;106046;1271;112243;-71
2022/01/24 11:22:00;;;;;;;42.50;22.40;;;;;;;-0.41;60.70;101929.84;106032;1273;139525;-71
2022/01/24 11:24:38;;;;;;;45.80;21.90;;;;;;;-0.39;60.72;101926.33;105974;1271;108795;-70
2022/01/24 11:27:27;;;;;;;48.50;22.90;;;;;;;-0.42;60.42;101912.21;105841;1271;138350;-69
2022/01/24 11:29:58;;;;;;;45.50;22.70;;;;;;;-0.43;60.55;101904.64;106042;1273;97743;-70
2022/01/24 11:32:29;;;;;;;51.50;22.50;;;;;;;-0.42;60.67;101907.76;106056;1271;112573;-71
2022/01/24 11:34:59;;;;;;;43.10;21.80;;;;;;;-0.42;60.53;101904.87;105984;1271;139044;-70
2022/01/24 11:37:34;;;;;;;50.70;22.20;;;;;;;-0.43;60.85;101899.17;106076;1271;108875;-71
2022/01/24 11:40:07;;;;;;;42.80;21.60;;;;;;;-0.37;60.79;101897.88;105964;1272;140087;-71
2022/01/24 11:42:36;;;;;;;42.50;22.00;;;;;;;-0.29;60.76;101900.26;107662;1271;96131;-72
2022/01/24 11:45:45;;;;;;;43.20;22.00;;;;;;;-0.21;60.77;101900.20;106682;1271;138762;-71
2022/01/24 11:48:18;;;;;;;48.80;22.20;;;;;;;-0.14;60.58;101898.63;105927;1271;109266;-71
2022/01/24 11:51:00;;;;;;;40.30;20.60;;;;;;;-0.06;60.50;101900.12;105632;1271;140089;-71
2022/01/24 11:53:30;;;;;;;39.40;19.90;;;;;;;-0.01;60.61;101895.66;107493;1271;96104;-71
2022/01/24 11:56:18;;;;;;;39.20;20.50;;;;;;;0.02;60.51;101895.11;106166;1272;97940;-71
2022/01/24 11:58:47;;;;;;;41.80;20.40;;;;;;;0.04;60.39;101893.11;105872;1273;137773;-69
2022/01/24 12:01:38;;;;;;;40.40;20.30;;;;;;;0.10;60.43;101891.80;106070;1273;108920;-71
2022/01/24 12:04:07;;;;;;;42.10;19.80;;;;;;;0.17;60.22;101882.66;105956;1273;138064;-70
2022/01/24 12:07:17;;;;;;;38.00;19.80;;;;;;;0.22;60.14;101878.04;106080;1272;97871;-71
2022/01/24 12:09:46;;;;;;;43.10;20.60;;;;;;;0.28;60.23;101883.58;105374;1279;137830;-71
2022/01/24 12:12:42;;;;;;;43.10;21.40;;;;;;;0.37;60.55;101883.73;105615;1280;112442;-71
2022/01/24 12:15:32;;;;;;;40.00;19.90;;;;;;;0.42;60.20;101878.77;105536;1277;139439;-71
2022/01/24 12:18:02;;;;;;;36.50;19.50;;;;;;;0.43;60.00;101875.01;105525;1278;108915;-71
2022/01/24 12:20:51;;;;;;;39.60;19.60;;;;;;;0.41;60.16;101875.61;107194;1277;96288;-72